sensor_id;sensor_type;location;lat;lon;timestamp;temperature;humidity
20489;DHT22;10403;54.092;12.122;2022-08-04T00:01:35;25.00;82.90
20489;DHT22;10403;54.092;12.122;2022-08-04T00:04:17;25.00;83.00
20489;DHT22;10403;54.092;12.122;2022-08-04T00:12:02;24.90;83.30
20489;DHT22;10403;54.092;12.122;2022-08-04T00:14:34;24.90;83.20
20489;DHT22;10403;54.092;12.122;2022-08-04T00:17:07;24.80;83.10
20489;DHT22;10403;54.092;12.122;2022-08-04T00:19:43;24.80;83.00
20489;DHT22;10403;54.092;12.122;2022-08-04T00:22:16;24.80;83.00
20489;DHT22;10403;54.092;12.122;2022-08-04T00:24:48;24.80;83.10
20489;DHT22;10403;54.092;12.122;2022-08-04T00:27:15;24.80;83.30
20489;DHT22;10403;54.092;12.122;2022-08-04T00:29:44;24.70;83.40
20489;DHT22;10403;54.092;12.122;2022-08-04T00:32:13;24.70;83.50
20489;DHT22;10403;54.092;12.122;2022-08-04T00:35:00;24.70;83.60
20489;DHT22;10403;54.092;12.122;2022-08-04T00:37:29;24.70;83.50
20489;DHT22;10403;54.092;12.122;2022-08-04T00:40:00;24.70;83.50
20489;DHT22;10403;54.092;12.122;2022-08-04T00:42:48;24.70;83.50
20489;DHT22;10403;54.092;12.122;2022-08-04T00:51:54;24.70;83.90
20489;DHT22;10403;54.092;12.122;2022-08-04T00:58:28;24.70;84.00
20489;DHT22;10403;54.092;12.122;2022-08-04T01:09:47;24.60;84.10
20489;DHT22;10403;54.092;12.122;2022-08-04T01:15:56;24.50;84.60
20489;DHT22;10403;54.092;12.122;2022-08-04T01:21:22;24.40;85.40
20489;DHT22;10403;54.092;12.122;2022-08-04T01:30:24;24.20;86.20
20489;DHT22;10403;54.092;12.122;2022-08-04T01:33:04;24.20;86.20
20489;DHT22;10403;54.092;12.122;2022-08-04T01:35:46;24.20;86.20
20489;DHT22;10403;54.092;12.122;2022-08-04T01:38:34;24.20;85.80
20489;DHT22;10403;54.092;12.122;2022-08-04T01:41:06;24.20;85.40
20489;DHT22;10403;54.092;12.122;2022-08-04T01:43:42;24.20;85.20
20489;DHT22;10403;54.092;12.122;2022-08-04T01:46:13;24.20;85.00
20489;DHT22;10403;54.092;12.122;2022-08-04T01:48:45;24.20;84.70
20489;DHT22;10403;54.092;12.122;2022-08-04T01:51:13;24.20;84.60
20489;DHT22;10403;54.092;12.122;2022-08-04T01:53:42;24.20;84.60
20489;DHT22;10403;54.092;12.122;2022-08-04T01:56:11;24.20;84.80
20489;DHT22;10403;54.092;12.122;2022-08-04T01:58:40;24.20;85.10
20489;DHT22;10403;54.092;12.122;2022-08-04T02:01:10;24.20;85.40
20489;DHT22;10403;54.092;12.122;2022-08-04T02:03:43;24.20;85.80
20489;DHT22;10403;54.092;12.122;2022-08-04T02:06:44;24.10;86.10
20489;DHT22;10403;54.092;12.122;2022-08-04T02:09:38;24.10;86.60
20489;DHT22;10403;54.092;12.122;2022-08-04T02:12:30;24.10;87.00
20489;DHT22;10403;54.092;12.122;2022-08-04T02:18:49;24.00;87.30
20489;DHT22;10403;54.092;12.122;2022-08-04T02:21:42;24.00;87.40
20489;DHT22;10403;54.092;12.122;2022-08-04T02:24:17;23.90;87.40
20489;DHT22;10403;54.092;12.122;2022-08-04T02:26:52;23.90;87.60
20489;DHT22;10403;54.092;12.122;2022-08-04T02:32:26;23.90;87.80
20489;DHT22;10403;54.092;12.122;2022-08-04T02:37:40;23.90;87.90
20489;DHT22;10403;54.092;12.122;2022-08-04T02:40:18;23.90;88.00
20489;DHT22;10403;54.092;12.122;2022-08-04T02:42:48;23.90;88.00
20489;DHT22;10403;54.092;12.122;2022-08-04T02:45:18;23.90;87.90
20489;DHT22;10403;54.092;12.122;2022-08-04T02:47:48;23.80;87.80
20489;DHT22;10403;54.092;12.122;2022-08-04T02:50:40;23.90;88.00
20489;DHT22;10403;54.092;12.122;2022-08-04T02:53:12;23.90;87.80
20489;DHT22;10403;54.092;12.122;2022-08-04T02:55:43;23.90;87.80
20489;DHT22;10403;54.092;12.122;2022-08-04T02:58:20;23.80;87.80
20489;DHT22;10403;54.092;12.122;2022-08-04T03:00:50;23.80;87.90
20489;DHT22;10403;54.092;12.122;2022-08-04T03:03:33;23.80;88.10
20489;DHT22;10403;54.092;12.122;2022-08-04T03:09:05;23.80;88.40
20489;DHT22;10403;54.092;12.122;2022-08-04T03:21:25;23.70;88.70
20489;DHT22;10403;54.092;12.122;2022-08-04T03:38:58;23.60;89.20
20489;DHT22;10403;54.092;12.122;2022-08-04T04:06:26;23.60;89.30
20489;DHT22;10403;54.092;12.122;2022-08-04T04:09:34;23.60;89.20
20489;DHT22;10403;54.092;12.122;2022-08-04T04:12:39;23.70;89.10
20489;DHT22;10403;54.092;12.122;2022-08-04T04:18:32;23.90;89.50
20489;DHT22;10403;54.092;12.122;2022-08-04T04:21:35;24.20;89.20
20489;DHT22;10403;54.092;12.122;2022-08-04T04:30:24;25.20;87.30
20489;DHT22;10403;54.092;12.122;2022-08-04T04:41:58;26.10;83.20
20489;DHT22;10403;54.092;12.122;2022-08-04T04:47:36;26.40;82.10
20489;DHT22;10403;54.092;12.122;2022-08-04T04:53:46;26.60;79.90
20489;DHT22;10403;54.092;12.122;2022-08-04T04:56:47;26.60;79.50
20489;DHT22;10403;54.092;12.122;2022-08-04T04:59:26;26.80;79.00
20489;DHT22;10403;54.092;12.122;2022-08-04T05:04:59;27.00;78.30
20489;DHT22;10403;54.092;12.122;2022-08-04T05:11:44;27.10;77.50
20489;DHT22;10403;54.092;12.122;2022-08-04T05:14:42;27.10;77.50
20489;DHT22;10403;54.092;12.122;2022-08-04T05:17:54;27.10;76.90
20489;DHT22;10403;54.092;12.122;2022-08-04T05:20:20;27.20;76.80
20489;DHT22;10403;54.092;12.122;2022-08-04T05:22:57;27.20;76.30
20489;DHT22;10403;54.092;12.122;2022-08-04T05:28:19;27.30;76.00
20489;DHT22;10403;54.092;12.122;2022-08-04T05:30:58;27.40;75.90
20489;DHT22;10403;54.092;12.122;2022-08-04T05:33:39;27.40;75.60
20489;DHT22;10403;54.092;12.122;2022-08-04T05:36:17;27.50;74.70
20489;DHT22;10403;54.092;12.122;2022-08-04T05:39:12;27.60;73.90
20489;DHT22;10403;54.092;12.122;2022-08-04T05:41:43;27.60;72.90
20489;DHT22;10403;54.092;12.122;2022-08-04T05:44:24;27.60;72.30
20489;DHT22;10403;54.092;12.122;2022-08-04T05:46:57;27.70;71.60
20489;DHT22;10403;54.092;12.122;2022-08-04T05:49:28;27.70;71.20
20489;DHT22;10403;54.092;12.122;2022-08-04T05:51:58;27.60;70.90
20489;DHT22;10403;54.092;12.122;2022-08-04T05:54:30;27.60;70.70
20489;DHT22;10403;54.092;12.122;2022-08-04T05:57:02;27.60;70.50
20489;DHT22;10403;54.092;12.122;2022-08-04T05:59:31;27.60;70.50
20489;DHT22;10403;54.092;12.122;2022-08-04T06:02:03;27.50;70.50
20489;DHT22;10403;54.092;12.122;2022-08-04T06:04:40;27.50;70.70
20489;DHT22;10403;54.092;12.122;2022-08-04T06:07:09;27.40;70.80
20489;DHT22;10403;54.092;12.122;2022-08-04T06:09:37;27.40;70.90
20489;DHT22;10403;54.092;12.122;2022-08-04T06:12:10;27.40;70.90
20489;DHT22;10403;54.092;12.122;2022-08-04T06:14:43;27.50;70.90
20489;DHT22;10403;54.092;12.122;2022-08-04T06:17:21;27.50;70.60
20489;DHT22;10403;54.092;12.122;2022-08-04T06:20:13;27.60;70.60
20489;DHT22;10403;54.092;12.122;2022-08-04T06:22:53;27.70;71.20
20489;DHT22;10403;54.092;12.122;2022-08-04T06:25:27;27.70;70.30
20489;DHT22;10403;54.092;12.122;2022-08-04T06:27:58;27.80;70.20
20489;DHT22;10403;54.092;12.122;2022-08-04T06:30:29;27.90;70.40
20489;DHT22;10403;54.092;12.122;2022-08-04T06:32:59;27.90;70.20
20489;DHT22;10403;54.092;12.122;2022-08-04T06:35:31;28.00;70.00
20489;DHT22;10403;54.092;12.122;2022-08-04T06:38:00;28.00;69.80
20489;DHT22;10403;54.092;12.122;2022-08-04T06:40:29;28.10;69.60
20489;DHT22;10403;54.092;12.122;2022-08-04T06:43:05;28.20;69.50
20489;DHT22;10403;54.092;12.122;2022-08-04T06:45:36;28.20;69.30
20489;DHT22;10403;54.092;12.122;2022-08-04T06:48:05;28.30;69.10
20489;DHT22;10403;54.092;12.122;2022-08-04T06:50:35;28.30;69.00
20489;DHT22;10403;54.092;12.122;2022-08-04T06:53:24;28.50;68.80
20489;DHT22;10403;54.092;12.122;2022-08-04T06:55:53;28.60;68.60
20489;DHT22;10403;54.092;12.122;2022-08-04T06:58:23;28.70;68.50
20489;DHT22;10403;54.092;12.122;2022-08-04T07:00:53;28.80;68.40
20489;DHT22;10403;54.092;12.122;2022-08-04T07:03:27;28.90;68.30
20489;DHT22;10403;54.092;12.122;2022-08-04T07:05:56;29.00;68.10
20489;DHT22;10403;54.092;12.122;2022-08-04T07:08:31;29.10;67.90
20489;DHT22;10403;54.092;12.122;2022-08-04T07:11:00;29.20;68.70
20489;DHT22;10403;54.092;12.122;2022-08-04T07:13:30;29.20;67.70
20489;DHT22;10403;54.092;12.122;2022-08-04T07:15:59;29.30;67.50
20489;DHT22;10403;54.092;12.122;2022-08-04T07:18:27;29.30;67.20
20489;DHT22;10403;54.092;12.122;2022-08-04T07:20:57;29.40;67.20
20489;DHT22;10403;54.092;12.122;2022-08-04T07:23:25;29.50;67.10
20489;DHT22;10403;54.092;12.122;2022-08-04T07:25:55;29.50;67.00
20489;DHT22;10403;54.092;12.122;2022-08-04T07:28:39;29.60;66.50
20489;DHT22;10403;54.092;12.122;2022-08-04T07:31:14;29.80;66.20
20489;DHT22;10403;54.092;12.122;2022-08-04T07:34:01;29.80;65.80
20489;DHT22;10403;54.092;12.122;2022-08-04T07:36:49;29.90;65.60
20489;DHT22;10403;54.092;12.122;2022-08-04T07:39:23;30.00;64.90
20489;DHT22;10403;54.092;12.122;2022-08-04T07:41:58;30.10;63.90
20489;DHT22;10403;54.092;12.122;2022-08-04T07:44:32;30.20;63.30
20489;DHT22;10403;54.092;12.122;2022-08-04T07:47:02;30.30;62.50
20489;DHT22;10403;54.092;12.122;2022-08-04T07:49:42;30.40;61.70
20489;DHT22;10403;54.092;12.122;2022-08-04T07:52:24;30.50;60.70
20489;DHT22;10403;54.092;12.122;2022-08-04T07:54:53;30.60;60.10
20489;DHT22;10403;54.092;12.122;2022-08-04T07:57:20;30.70;59.70
20489;DHT22;10403;54.092;12.122;2022-08-04T08:00:08;30.80;59.30
20489;DHT22;10403;54.092;12.122;2022-08-04T08:02:37;30.80;58.80
20489;DHT22;10403;54.092;12.122;2022-08-04T08:05:08;30.80;58.50
20489;DHT22;10403;54.092;12.122;2022-08-04T08:07:36;30.90;58.40
20489;DHT22;10403;54.092;12.122;2022-08-04T08:10:17;31.00;58.80
20489;DHT22;10403;54.092;12.122;2022-08-04T08:12:44;31.10;58.90
20489;DHT22;10403;54.092;12.122;2022-08-04T08:15:18;31.10;58.70
20489;DHT22;10403;54.092;12.122;2022-08-04T08:17:46;31.10;59.00
20489;DHT22;10403;54.092;12.122;2022-08-04T08:20:30;31.20;59.50
20489;DHT22;10403;54.092;12.122;2022-08-04T08:23:00;31.20;58.90
20489;DHT22;10403;54.092;12.122;2022-08-04T08:25:32;31.20;59.70
20489;DHT22;10403;54.092;12.122;2022-08-04T08:28:02;31.10;60.40
20489;DHT22;10403;54.092;12.122;2022-08-04T08:30:31;30.90;61.10
20489;DHT22;10403;54.092;12.122;2022-08-04T08:33:05;30.80;61.40
20489;DHT22;10403;54.092;12.122;2022-08-04T08:35:49;30.70;61.80
20489;DHT22;10403;54.092;12.122;2022-08-04T08:44:36;31.00;61.20
20489;DHT22;10403;54.092;12.122;2022-08-04T09:10:42;32.00;56.90
20489;DHT22;10403;54.092;12.122;2022-08-04T09:13:35;32.10;56.00
20489;DHT22;10403;54.092;12.122;2022-08-04T09:16:23;32.10;55.80
20489;DHT22;10403;54.092;12.122;2022-08-04T09:19:11;32.20;55.70
20489;DHT22;10403;54.092;12.122;2022-08-04T09:22:24;32.20;55.50
20489;DHT22;10403;54.092;12.122;2022-08-04T09:25:04;32.30;55.10
20489;DHT22;10403;54.092;12.122;2022-08-04T09:28:18;32.40;54.50
20489;DHT22;10403;54.092;12.122;2022-08-04T09:31:12;32.30;53.60
20489;DHT22;10403;54.092;12.122;2022-08-04T09:33:56;32.20;53.20
20489;DHT22;10403;54.092;12.122;2022-08-04T09:36:49;32.30;52.80
20489;DHT22;10403;54.092;12.122;2022-08-04T09:40:09;32.40;53.20
20489;DHT22;10403;54.092;12.122;2022-08-04T09:46:32;32.50;53.10
20489;DHT22;10403;54.092;12.122;2022-08-04T09:50:06;32.60;52.80
20489;DHT22;10403;54.092;12.122;2022-08-04T09:56:13;32.70;52.30
20489;DHT22;10403;54.092;12.122;2022-08-04T10:01:25;32.80;51.80
20489;DHT22;10403;54.092;12.122;2022-08-04T10:03:59;32.70;51.40
20489;DHT22;10403;54.092;12.122;2022-08-04T10:09:49;32.90;51.10
20489;DHT22;10403;54.092;12.122;2022-08-04T10:14:52;33.00;50.40
20489;DHT22;10403;54.092;12.122;2022-08-04T10:26:28;33.30;49.40
20489;DHT22;10403;54.092;12.122;2022-08-04T10:29:09;33.30;49.20
20489;DHT22;10403;54.092;12.122;2022-08-04T10:31:56;33.30;48.90
20489;DHT22;10403;54.092;12.122;2022-08-04T10:34:38;33.30;48.50
20489;DHT22;10403;54.092;12.122;2022-08-04T10:37:22;33.40;48.50
20489;DHT22;10403;54.092;12.122;2022-08-04T10:40:22;33.40;48.60
20489;DHT22;10403;54.092;12.122;2022-08-04T10:46:17;33.60;48.20
20489;DHT22;10403;54.092;12.122;2022-08-04T10:49:03;33.60;47.80
20489;DHT22;10403;54.092;12.122;2022-08-04T10:51:41;33.70;47.80
20489;DHT22;10403;54.092;12.122;2022-08-04T10:57:41;33.70;46.40
20489;DHT22;10403;54.092;12.122;2022-08-04T11:00:18;33.80;46.50
20489;DHT22;10403;54.092;12.122;2022-08-04T11:03:00;33.90;46.60
20489;DHT22;10403;54.092;12.122;2022-08-04T11:08:30;33.90;46.00
20489;DHT22;10403;54.092;12.122;2022-08-04T11:11:24;34.00;46.00
20489;DHT22;10403;54.092;12.122;2022-08-04T11:14:02;34.10;45.80
20489;DHT22;10403;54.092;12.122;2022-08-04T11:17:18;34.00;46.30
20489;DHT22;10403;54.092;12.122;2022-08-04T11:23:15;34.10;45.00
20489;DHT22;10403;54.092;12.122;2022-08-04T11:26:14;34.10;45.20
20489;DHT22;10403;54.092;12.122;2022-08-04T11:29:16;34.10;45.20
20489;DHT22;10403;54.092;12.122;2022-08-04T11:32:07;34.10;45.00
20489;DHT22;10403;54.092;12.122;2022-08-04T11:34:47;34.10;44.90
20489;DHT22;10403;54.092;12.122;2022-08-04T11:37:26;34.20;44.90
20489;DHT22;10403;54.092;12.122;2022-08-04T11:40:26;34.20;45.20
20489;DHT22;10403;54.092;12.122;2022-08-04T11:43:05;34.30;44.30
20489;DHT22;10403;54.092;12.122;2022-08-04T11:45:49;34.40;44.30
20489;DHT22;10403;54.092;12.122;2022-08-04T11:48:28;34.40;44.30
20489;DHT22;10403;54.092;12.122;2022-08-04T11:51:02;34.50;44.40
20489;DHT22;10403;54.092;12.122;2022-08-04T11:53:34;34.50;44.20
20489;DHT22;10403;54.092;12.122;2022-08-04T11:56:08;34.50;43.80
20489;DHT22;10403;54.092;12.122;2022-08-04T11:58:41;34.50;43.60
20489;DHT22;10403;54.092;12.122;2022-08-04T12:01:45;34.50;43.60
20489;DHT22;10403;54.092;12.122;2022-08-04T12:04:48;34.50;43.50
20489;DHT22;10403;54.092;12.122;2022-08-04T12:08:01;34.60;43.50
20489;DHT22;10403;54.092;12.122;2022-08-04T12:13:45;34.60;43.60
20489;DHT22;10403;54.092;12.122;2022-08-04T12:19:07;34.30;43.20
20489;DHT22;10403;54.092;12.122;2022-08-04T12:21:53;34.20;43.00
20489;DHT22;10403;54.092;12.122;2022-08-04T12:24:48;34.10;43.20
20489;DHT22;10403;54.092;12.122;2022-08-04T12:27:45;34.20;43.00
20489;DHT22;10403;54.092;12.122;2022-08-04T12:30:17;34.30;42.70
20489;DHT22;10403;54.092;12.122;2022-08-04T12:33:30;34.40;42.70
20489;DHT22;10403;54.092;12.122;2022-08-04T12:39:29;34.70;42.10
20489;DHT22;10403;54.092;12.122;2022-08-04T12:42:12;34.80;41.80
20489;DHT22;10403;54.092;12.122;2022-08-04T12:44:48;34.80;41.50
20489;DHT22;10403;54.092;12.122;2022-08-04T12:47:27;34.80;41.20
20489;DHT22;10403;54.092;12.122;2022-08-04T12:50:00;34.80;40.60
20489;DHT22;10403;54.092;12.122;2022-08-04T12:52:32;34.80;40.60
20489;DHT22;10403;54.092;12.122;2022-08-04T12:55:29;34.70;40.40
20489;DHT22;10403;54.092;12.122;2022-08-04T12:58:00;34.80;40.40
20489;DHT22;10403;54.092;12.122;2022-08-04T13:00:34;34.90;40.40
20489;DHT22;10403;54.092;12.122;2022-08-04T13:03:13;35.00;40.10
20489;DHT22;10403;54.092;12.122;2022-08-04T13:05:44;35.10;40.10
20489;DHT22;10403;54.092;12.122;2022-08-04T13:08:13;35.10;39.90
20489;DHT22;10403;54.092;12.122;2022-08-04T13:10:47;35.10;39.60
20489;DHT22;10403;54.092;12.122;2022-08-04T13:13:19;35.10;39.40
20489;DHT22;10403;54.092;12.122;2022-08-04T13:16:05;35.10;39.20
20489;DHT22;10403;54.092;12.122;2022-08-04T13:18:40;35.10;39.10
20489;DHT22;10403;54.092;12.122;2022-08-04T13:21:15;35.10;39.00
20489;DHT22;10403;54.092;12.122;2022-08-04T13:23:54;35.20;38.90
20489;DHT22;10403;54.092;12.122;2022-08-04T13:26:59;35.20;38.60
20489;DHT22;10403;54.092;12.122;2022-08-04T13:29:45;35.30;38.40
20489;DHT22;10403;54.092;12.122;2022-08-04T13:32:27;35.30;38.40
20489;DHT22;10403;54.092;12.122;2022-08-04T13:34:56;35.30;38.20
20489;DHT22;10403;54.092;12.122;2022-08-04T13:37:33;35.30;38.00
20489;DHT22;10403;54.092;12.122;2022-08-04T13:40:04;35.30;38.00
20489;DHT22;10403;54.092;12.122;2022-08-04T13:42:36;35.20;37.90
20489;DHT22;10403;54.092;12.122;2022-08-04T13:45:06;35.30;37.80
20489;DHT22;10403;54.092;12.122;2022-08-04T13:47:36;35.30;37.90
20489;DHT22;10403;54.092;12.122;2022-08-04T13:50:21;35.20;37.50
20489;DHT22;10403;54.092;12.122;2022-08-04T13:52:54;35.20;37.80
20489;DHT22;10403;54.092;12.122;2022-08-04T13:55:30;35.30;36.90
20489;DHT22;10403;54.092;12.122;2022-08-04T13:58:10;35.30;36.60
20489;DHT22;10403;54.092;12.122;2022-08-04T14:00:53;35.40;36.50
20489;DHT22;10403;54.092;12.122;2022-08-04T14:03:35;35.30;36.60
20489;DHT22;10403;54.092;12.122;2022-08-04T14:06:23;35.30;36.70
20489;DHT22;10403;54.092;12.122;2022-08-04T14:08:55;35.30;36.60
20489;DHT22;10403;54.092;12.122;2022-08-04T14:14:30;35.40;36.70
20489;DHT22;10403;54.092;12.122;2022-08-04T14:17:09;35.50;36.60
20489;DHT22;10403;54.092;12.122;2022-08-04T14:19:53;35.30;36.40
20489;DHT22;10403;54.092;12.122;2022-08-04T14:25:15;35.20;36.50
20489;DHT22;10403;54.092;12.122;2022-08-04T14:33:09;35.20;36.50
20489;DHT22;10403;54.092;12.122;2022-08-04T14:35:58;35.20;36.90
20489;DHT22;10403;54.092;12.122;2022-08-04T14:38:50;35.10;37.00
20489;DHT22;10403;54.092;12.122;2022-08-04T14:41:29;35.10;37.00
20489;DHT22;10403;54.092;12.122;2022-08-04T14:44:09;35.10;36.80
20489;DHT22;10403;54.092;12.122;2022-08-04T14:46:49;35.10;36.50
20489;DHT22;10403;54.092;12.122;2022-08-04T14:49:18;35.10;36.40
20489;DHT22;10403;54.092;12.122;2022-08-04T14:51:58;35.10;36.50
20489;DHT22;10403;54.092;12.122;2022-08-04T14:54:33;35.10;36.40
20489;DHT22;10403;54.092;12.122;2022-08-04T14:57:03;35.10;36.10
20489;DHT22;10403;54.092;12.122;2022-08-04T14:59:47;35.20;36.10
20489;DHT22;10403;54.092;12.122;2022-08-04T15:02:28;35.30;36.30
20489;DHT22;10403;54.092;12.122;2022-08-04T15:04:56;35.30;36.20
20489;DHT22;10403;54.092;12.122;2022-08-04T15:07:45;35.30;35.90
20489;DHT22;10403;54.092;12.122;2022-08-04T15:10:13;35.30;35.70
20489;DHT22;10403;54.092;12.122;2022-08-04T15:12:40;35.30;35.60
20489;DHT22;10403;54.092;12.122;2022-08-04T15:15:07;35.20;35.70
20489;DHT22;10403;54.092;12.122;2022-08-04T15:17:55;35.10;35.90
20489;DHT22;10403;54.092;12.122;2022-08-04T15:20:22;35.10;36.20
20489;DHT22;10403;54.092;12.122;2022-08-04T15:22:49;35.10;36.20
20489;DHT22;10403;54.092;12.122;2022-08-04T15:25:17;35.10;36.00
20489;DHT22;10403;54.092;12.122;2022-08-04T15:27:48;35.10;35.90
20489;DHT22;10403;54.092;12.122;2022-08-04T15:30:17;35.10;36.40
20489;DHT22;10403;54.092;12.122;2022-08-04T15:32:51;35.10;35.80
20489;DHT22;10403;54.092;12.122;2022-08-04T15:35:24;35.00;35.70
20489;DHT22;10403;54.092;12.122;2022-08-04T15:38:20;35.00;35.70
20489;DHT22;10403;54.092;12.122;2022-08-04T15:41:07;35.00;35.50
20489;DHT22;10403;54.092;12.122;2022-08-04T15:49:21;34.90;35.40
20489;DHT22;10403;54.092;12.122;2022-08-04T15:52:13;34.90;35.60
20489;DHT22;10403;54.092;12.122;2022-08-04T15:54:44;34.90;35.50
20489;DHT22;10403;54.092;12.122;2022-08-04T15:57:57;35.00;35.60
20489;DHT22;10403;54.092;12.122;2022-08-04T16:16:47;34.60;35.40
20489;DHT22;10403;54.092;12.122;2022-08-04T16:22:03;34.40;35.80
20489;DHT22;10403;54.092;12.122;2022-08-04T16:24:40;34.30;36.00
20489;DHT22;10403;54.092;12.122;2022-08-04T16:27:10;34.20;36.30
20489;DHT22;10403;54.092;12.122;2022-08-04T16:29:41;34.20;36.40
20489;DHT22;10403;54.092;12.122;2022-08-04T16:32:14;34.10;36.60
20489;DHT22;10403;54.092;12.122;2022-08-04T16:35:01;34.10;36.90
20489;DHT22;10403;54.092;12.122;2022-08-04T16:37:35;34.00;37.10
20489;DHT22;10403;54.092;12.122;2022-08-04T16:40:32;34.00;37.30
20489;DHT22;10403;54.092;12.122;2022-08-04T16:43:05;33.90;37.40
20489;DHT22;10403;54.092;12.122;2022-08-04T16:45:55;33.90;37.70
20489;DHT22;10403;54.092;12.122;2022-08-04T16:48:33;33.80;37.90
20489;DHT22;10403;54.092;12.122;2022-08-04T16:51:06;33.70;38.80
20489;DHT22;10403;54.092;12.122;2022-08-04T16:53:42;33.70;39.00
20489;DHT22;10403;54.092;12.122;2022-08-04T16:56:31;33.60;38.30
20489;DHT22;10403;54.092;12.122;2022-08-04T16:59:08;33.60;40.30
20489;DHT22;10403;54.092;12.122;2022-08-04T17:01:44;33.30;44.00
20489;DHT22;10403;54.092;12.122;2022-08-04T17:04:15;32.90;46.60
20489;DHT22;10403;54.092;12.122;2022-08-04T17:06:44;32.50;47.70
20489;DHT22;10403;54.092;12.122;2022-08-04T17:09:17;32.20;48.50
20489;DHT22;10403;54.092;12.122;2022-08-04T17:11:46;31.80;49.50
20489;DHT22;10403;54.092;12.122;2022-08-04T17:14:23;31.60;50.50
20489;DHT22;10403;54.092;12.122;2022-08-04T17:16:54;31.30;52.10
20489;DHT22;10403;54.092;12.122;2022-08-04T17:19:23;31.00;53.30
20489;DHT22;10403;54.092;12.122;2022-08-04T17:22:00;30.80;54.10
20489;DHT22;10403;54.092;12.122;2022-08-04T17:24:37;30.70;54.30
20489;DHT22;10403;54.092;12.122;2022-08-04T17:27:06;30.50;54.20
20489;DHT22;10403;54.092;12.122;2022-08-04T17:29:54;30.50;54.10
20489;DHT22;10403;54.092;12.122;2022-08-04T17:32:21;30.30;55.20
20489;DHT22;10403;54.092;12.122;2022-08-04T17:34:55;30.30;56.30
20489;DHT22;10403;54.092;12.122;2022-08-04T17:37:25;30.10;57.30
20489;DHT22;10403;54.092;12.122;2022-08-04T17:40:12;29.90;57.80
20489;DHT22;10403;54.092;12.122;2022-08-04T17:42:49;29.80;58.30
20489;DHT22;10403;54.092;12.122;2022-08-04T17:45:27;29.70;59.00
20489;DHT22;10403;54.092;12.122;2022-08-04T17:48:19;29.70;59.80
20489;DHT22;10403;54.092;12.122;2022-08-04T17:51:15;29.60;60.50
20489;DHT22;10403;54.092;12.122;2022-08-04T17:53:43;29.50;61.10
20489;DHT22;10403;54.092;12.122;2022-08-04T17:56:37;29.40;61.40
20489;DHT22;10403;54.092;12.122;2022-08-04T17:59:23;29.20;62.40
20489;DHT22;10403;54.092;12.122;2022-08-04T18:02:11;29.00;63.10
20489;DHT22;10403;54.092;12.122;2022-08-04T18:07:37;28.70;65.50
20489;DHT22;10403;54.092;12.122;2022-08-04T18:10:55;28.40;66.20
20489;DHT22;10403;54.092;12.122;2022-08-04T18:13:26;28.00;67.70
20489;DHT22;10403;54.092;12.122;2022-08-04T18:16:04;27.70;68.40
20489;DHT22;10403;54.092;12.122;2022-08-04T18:19:10;27.50;69.50
20489;DHT22;10403;54.092;12.122;2022-08-04T18:21:39;27.40;70.40
20489;DHT22;10403;54.092;12.122;2022-08-04T18:24:32;27.30;70.30
20489;DHT22;10403;54.092;12.122;2022-08-04T18:27:22;27.20;70.20
20489;DHT22;10403;54.092;12.122;2022-08-04T18:29:57;27.20;70.30
20489;DHT22;10403;54.092;12.122;2022-08-04T18:32:44;27.20;70.30
20489;DHT22;10403;54.092;12.122;2022-08-04T18:35:34;27.20;70.10
20489;DHT22;10403;54.092;12.122;2022-08-04T18:38:22;27.10;71.00
20489;DHT22;10403;54.092;12.122;2022-08-04T18:40:50;27.00;70.50
20489;DHT22;10403;54.092;12.122;2022-08-04T18:43:21;26.90;71.00
20489;DHT22;10403;54.092;12.122;2022-08-04T18:45:57;26.90;71.30
20489;DHT22;10403;54.092;12.122;2022-08-04T18:48:26;26.80;71.60
20489;DHT22;10403;54.092;12.122;2022-08-04T18:51:03;26.70;72.00
20489;DHT22;10403;54.092;12.122;2022-08-04T18:53:50;26.70;72.20
20489;DHT22;10403;54.092;12.122;2022-08-04T18:56:28;26.70;72.50
20489;DHT22;10403;54.092;12.122;2022-08-04T18:59:03;26.70;73.30
20489;DHT22;10403;54.092;12.122;2022-08-04T19:01:36;26.60;73.90
20489;DHT22;10403;54.092;12.122;2022-08-04T19:04:24;26.60;74.30
20489;DHT22;10403;54.092;12.122;2022-08-04T19:07:05;26.70;74.60
20489;DHT22;10403;54.092;12.122;2022-08-04T19:09:52;26.60;74.70
20489;DHT22;10403;54.092;12.122;2022-08-04T19:12:26;26.70;75.00
20489;DHT22;10403;54.092;12.122;2022-08-04T19:14:56;26.60;75.20
20489;DHT22;10403;54.092;12.122;2022-08-04T19:17:37;26.40;75.40
20489;DHT22;10403;54.092;12.122;2022-08-04T19:20:24;26.40;75.60
20489;DHT22;10403;54.092;12.122;2022-08-04T19:22:53;26.30;75.90
20489;DHT22;10403;54.092;12.122;2022-08-04T19:25:42;26.30;76.40
20489;DHT22;10403;54.092;12.122;2022-08-04T19:28:32;26.30;76.40
20489;DHT22;10403;54.092;12.122;2022-08-04T19:31:20;26.30;76.70
20489;DHT22;10403;54.092;12.122;2022-08-04T19:34:00;26.30;77.00
20489;DHT22;10403;54.092;12.122;2022-08-04T19:36:31;26.30;77.20
20489;DHT22;10403;54.092;12.122;2022-08-04T19:39:03;26.40;77.50
20489;DHT22;10403;54.092;12.122;2022-08-04T19:41:37;26.40;78.50
20489;DHT22;10403;54.092;12.122;2022-08-04T19:44:25;26.40;78.10
20489;DHT22;10403;54.092;12.122;2022-08-04T19:46:56;26.40;77.80
20489;DHT22;10403;54.092;12.122;2022-08-04T19:49:28;26.40;78.80
20489;DHT22;10403;54.092;12.122;2022-08-04T19:52:15;26.40;78.30
20489;DHT22;10403;54.092;12.122;2022-08-04T19:55:02;26.40;78.50
20489;DHT22;10403;54.092;12.122;2022-08-04T19:57:39;26.50;78.80
20489;DHT22;10403;54.092;12.122;2022-08-04T20:00:13;26.50;78.80
20489;DHT22;10403;54.092;12.122;2022-08-04T20:02:42;26.50;78.80
20489;DHT22;10403;54.092;12.122;2022-08-04T20:05:10;26.50;78.80
20489;DHT22;10403;54.092;12.122;2022-08-04T20:07:38;26.60;78.80
20489;DHT22;10403;54.092;12.122;2022-08-04T20:10:06;26.60;79.00
20489;DHT22;10403;54.092;12.122;2022-08-04T20:12:38;26.60;79.30
20489;DHT22;10403;54.092;12.122;2022-08-04T20:15:08;26.60;79.80
20489;DHT22;10403;54.092;12.122;2022-08-04T20:17:40;26.60;80.40
20489;DHT22;10403;54.092;12.122;2022-08-04T20:20:28;26.70;80.60
20489;DHT22;10403;54.092;12.122;2022-08-04T20:22:55;26.60;80.70
20489;DHT22;10403;54.092;12.122;2022-08-04T20:25:24;26.60;80.70
20489;DHT22;10403;54.092;12.122;2022-08-04T20:28:03;26.60;80.70
20489;DHT22;10403;54.092;12.122;2022-08-04T20:30:31;26.50;80.70
20489;DHT22;10403;54.092;12.122;2022-08-04T20:33:01;26.50;80.90
20489;DHT22;10403;54.092;12.122;2022-08-04T20:35:32;26.50;81.10